sensor_id;sensor_type;location;lat;lon;timestamp;temperature;humidity
20795;DHT22;28087;-33.874;151.240;2022-07-05T00:05:36;16.30;99.90
20795;DHT22;28087;-33.874;151.240;2022-07-05T00:08:15;16.30;99.90
20795;DHT22;28087;-33.874;151.240;2022-07-05T00:10:50;16.40;99.90
20795;DHT22;28087;-33.874;151.240;2022-07-05T00:24:06;16.40;99.90
20795;DHT22;28087;-33.874;151.240;2022-07-05T00:26:48;16.50;99.90
20795;DHT22;28087;-33.874;151.240;2022-07-05T00:29:27;16.40;99.90
20795;DHT22;28087;-33.874;151.240;2022-07-05T00:32:07;16.30;99.90
20795;DHT22;28087;-33.874;151.240;2022-07-05T00:37:40;16.30;99.90
20795;DHT22;28087;-33.874;151.240;2022-07-05T00:40:19;16.30;99.90
20795;DHT22;28087;-33.874;151.240;2022-07-05T00:43:01;16.40;99.90
20795;DHT22;28087;-33.874;151.240;2022-07-05T00:45:52;16.40;99.90
20795;DHT22;28087;-33.874;151.240;2022-07-05T00:51:23;16.50;99.90
20795;DHT22;28087;-33.874;151.240;2022-07-05T00:54:07;16.40;99.90
20795;DHT22;28087;-33.874;151.240;2022-07-05T00:56:48;16.40;99.90
20795;DHT22;28087;-33.874;151.240;2022-07-05T01:02:11;16.50;99.90
20795;DHT22;28087;-33.874;151.240;2022-07-05T01:04:51;16.40;99.90
20795;DHT22;28087;-33.874;151.240;2022-07-05T01:10:15;16.50;99.90
20795;DHT22;28087;-33.874;151.240;2022-07-05T01:13:10;16.50;99.90
20795;DHT22;28087;-33.874;151.240;2022-07-05T01:15:46;16.60;99.90
20795;DHT22;28087;-33.874;151.240;2022-07-05T01:18:25;16.60;99.90
20795;DHT22;28087;-33.874;151.240;2022-07-05T01:21:17;16.60;99.90
20795;DHT22;28087;-33.874;151.240;2022-07-05T01:29:29;16.60;99.90
20795;DHT22;28087;-33.874;151.240;2022-07-05T01:34:44;16.70;99.90
20795;DHT22;28087;-33.874;151.240;2022-07-05T01:37:28;16.70;99.90
20795;DHT22;28087;-33.874;151.240;2022-07-05T01:40:08;16.70;99.90
20795;DHT22;28087;-33.874;151.240;2022-07-05T01:42:48;16.70;99.90
20795;DHT22;28087;-33.874;151.240;2022-07-05T01:45:29;16.70;99.90
20795;DHT22;28087;-33.874;151.240;2022-07-05T01:48:18;16.70;99.90
20795;DHT22;28087;-33.874;151.240;2022-07-05T01:51:04;16.70;99.90
20795;DHT22;28087;-33.874;151.240;2022-07-05T01:53:42;16.70;99.90
20795;DHT22;28087;-33.874;151.240;2022-07-05T01:56:25;16.70;99.90
20795;DHT22;28087;-33.874;151.240;2022-07-05T01:59:04;16.70;99.90
20795;DHT22;28087;-33.874;151.240;2022-07-05T02:01:42;16.70;99.90
20795;DHT22;28087;-33.874;151.240;2022-07-05T02:04:27;16.70;99.90
20795;DHT22;28087;-33.874;151.240;2022-07-05T02:07:06;16.80;99.90
20795;DHT22;28087;-33.874;151.240;2022-07-05T02:09:43;16.80;99.90
20795;DHT22;28087;-33.874;151.240;2022-07-05T02:12:23;16.80;99.90
20795;DHT22;28087;-33.874;151.240;2022-07-05T02:15:02;16.80;99.90
20795;DHT22;28087;-33.874;151.240;2022-07-05T02:17:43;16.80;99.90
20795;DHT22;28087;-33.874;151.240;2022-07-05T02:20:29;16.80;99.90
20795;DHT22;28087;-33.874;151.240;2022-07-05T02:25:45;16.80;99.90
20795;DHT22;28087;-33.874;151.240;2022-07-05T02:28:29;16.90;99.90
20795;DHT22;28087;-33.874;151.240;2022-07-05T02:39:27;16.60;99.90
20795;DHT22;28087;-33.874;151.240;2022-07-05T02:42:05;16.60;99.90
20795;DHT22;28087;-33.874;151.240;2022-07-05T02:55:41;16.60;99.90
20795;DHT22;28087;-33.874;151.240;2022-07-05T02:58:19;16.60;99.90
20795;DHT22;28087;-33.874;151.240;2022-07-05T03:01:02;16.60;99.90
20795;DHT22;28087;-33.874;151.240;2022-07-05T03:03:45;16.40;99.90
20795;DHT22;28087;-33.874;151.240;2022-07-05T03:06:23;16.40;99.90
20795;DHT22;28087;-33.874;151.240;2022-07-05T03:09:06;16.30;99.90
20795;DHT22;28087;-33.874;151.240;2022-07-05T03:11:43;16.20;99.90
20795;DHT22;28087;-33.874;151.240;2022-07-05T03:30:28;16.50;99.90
20795;DHT22;28087;-33.874;151.240;2022-07-05T03:33:12;16.40;99.90
20795;DHT22;28087;-33.874;151.240;2022-07-05T03:52:18;16.40;99.90
20795;DHT22;28087;-33.874;151.240;2022-07-05T03:55:00;16.30;99.90
20795;DHT22;28087;-33.874;151.240;2022-07-05T03:57:37;16.30;99.90
20795;DHT22;28087;-33.874;151.240;2022-07-05T04:00:18;16.30;99.90
20795;DHT22;28087;-33.874;151.240;2022-07-05T04:03:03;16.30;99.90
20795;DHT22;28087;-33.874;151.240;2022-07-05T04:05:47;16.20;99.90
20795;DHT22;28087;-33.874;151.240;2022-07-05T04:08:23;16.20;99.90
20795;DHT22;28087;-33.874;151.240;2022-07-05T04:10:59;16.20;99.90
20795;DHT22;28087;-33.874;151.240;2022-07-05T04:13:37;16.20;99.90
20795;DHT22;28087;-33.874;151.240;2022-07-05T04:16:14;16.20;99.90
20795;DHT22;28087;-33.874;151.240;2022-07-05T04:18:54;16.20;99.90
20795;DHT22;28087;-33.874;151.240;2022-07-05T04:21:35;16.30;99.90
20795;DHT22;28087;-33.874;151.240;2022-07-05T04:24:11;16.30;99.90
20795;DHT22;28087;-33.874;151.240;2022-07-05T04:26:47;16.30;99.90
20795;DHT22;28087;-33.874;151.240;2022-07-05T04:29:25;16.30;99.90
20795;DHT22;28087;-33.874;151.240;2022-07-05T04:32:02;16.40;99.90
20795;DHT22;28087;-33.874;151.240;2022-07-05T04:34:39;16.40;99.90
20795;DHT22;28087;-33.874;151.240;2022-07-05T04:37:17;16.50;99.90
20795;DHT22;28087;-33.874;151.240;2022-07-05T04:39:53;16.50;99.90
20795;DHT22;28087;-33.874;151.240;2022-07-05T04:42:30;16.50;99.90
20795;DHT22;28087;-33.874;151.240;2022-07-05T04:45:08;16.50;99.90
20795;DHT22;28087;-33.874;151.240;2022-07-05T04:47:47;16.50;99.90
20795;DHT22;28087;-33.874;151.240;2022-07-05T04:50:27;16.50;99.90
20795;DHT22;28087;-33.874;151.240;2022-07-05T04:53:08;16.60;99.90
20795;DHT22;28087;-33.874;151.240;2022-07-05T04:55:45;16.60;99.90
20795;DHT22;28087;-33.874;151.240;2022-07-05T04:58:22;16.60;99.90
20795;DHT22;28087;-33.874;151.240;2022-07-05T05:03:36;16.60;99.90
20795;DHT22;28087;-33.874;151.240;2022-07-05T05:06:16;16.70;99.90
20795;DHT22;28087;-33.874;151.240;2022-07-05T05:08:57;16.60;99.90
20795;DHT22;28087;-33.874;151.240;2022-07-05T05:11:37;16.80;99.90
20795;DHT22;28087;-33.874;151.240;2022-07-05T05:19:26;16.80;99.90
20795;DHT22;28087;-33.874;151.240;2022-07-05T05:27:21;16.70;99.90
20795;DHT22;28087;-33.874;151.240;2022-07-05T05:30:00;16.80;99.90
20795;DHT22;28087;-33.874;151.240;2022-07-05T05:35:37;16.70;99.90
20795;DHT22;28087;-33.874;151.240;2022-07-05T05:40:55;16.80;99.90
20795;DHT22;28087;-33.874;151.240;2022-07-05T05:43:34;16.80;99.90
20795;DHT22;28087;-33.874;151.240;2022-07-05T05:46:16;16.80;99.90
20795;DHT22;28087;-33.874;151.240;2022-07-05T05:48:57;16.80;99.90
20795;DHT22;28087;-33.874;151.240;2022-07-05T05:51:36;16.70;99.90
20795;DHT22;28087;-33.874;151.240;2022-07-05T05:54:12;16.80;99.90
20795;DHT22;28087;-33.874;151.240;2022-07-05T05:57:04;16.80;99.90
20795;DHT22;28087;-33.874;151.240;2022-07-05T05:59:50;16.80;99.90
20795;DHT22;28087;-33.874;151.240;2022-07-05T06:02:41;16.90;99.90
20795;DHT22;28087;-33.874;151.240;2022-07-05T06:05:25;16.90;99.90
20795;DHT22;28087;-33.874;151.240;2022-07-05T06:13:39;16.80;99.90
20795;DHT22;28087;-33.874;151.240;2022-07-05T06:18:56;16.80;99.90
20795;DHT22;28087;-33.874;151.240;2022-07-05T06:24:16;16.80;99.90
20795;DHT22;28087;-33.874;151.240;2022-07-05T06:29:44;16.80;99.90
20795;DHT22;28087;-33.874;151.240;2022-07-05T06:32:24;16.80;99.90
20795;DHT22;28087;-33.874;151.240;2022-07-05T06:40:26;16.40;99.90
20795;DHT22;28087;-33.874;151.240;2022-07-05T06:48:57;16.60;99.90
20795;DHT22;28087;-33.874;151.240;2022-07-05T06:51:38;16.60;99.90
20795;DHT22;28087;-33.874;151.240;2022-07-05T06:54:18;16.60;99.90
20795;DHT22;28087;-33.874;151.240;2022-07-05T06:57:20;16.20;99.90
20795;DHT22;28087;-33.874;151.240;2022-07-05T07:00:07;16.20;99.90
20795;DHT22;28087;-33.874;151.240;2022-07-05T07:03:06;16.30;99.90
20795;DHT22;28087;-33.874;151.240;2022-07-05T07:06:13;16.20;99.90
20795;DHT22;28087;-33.874;151.240;2022-07-05T07:08:51;16.10;99.90
20795;DHT22;28087;-33.874;151.240;2022-07-05T07:11:40;16.10;99.90
20795;DHT22;28087;-33.874;151.240;2022-07-05T07:14:20;16.00;99.90
20795;DHT22;28087;-33.874;151.240;2022-07-05T07:17:01;16.00;99.90
20795;DHT22;28087;-33.874;151.240;2022-07-05T07:19:47;16.00;99.90
20795;DHT22;28087;-33.874;151.240;2022-07-05T07:22:23;15.90;99.90
20795;DHT22;28087;-33.874;151.240;2022-07-05T07:25:12;15.90;99.90
20795;DHT22;28087;-33.874;151.240;2022-07-05T07:27:51;16.00;99.90
20795;DHT22;28087;-33.874;151.240;2022-07-05T07:30:30;16.00;99.90
20795;DHT22;28087;-33.874;151.240;2022-07-05T07:33:06;16.10;99.90
20795;DHT22;28087;-33.874;151.240;2022-07-05T07:36:11;16.20;99.90
20795;DHT22;28087;-33.874;151.240;2022-07-05T07:38:52;16.20;99.90
20795;DHT22;28087;-33.874;151.240;2022-07-05T07:41:27;16.30;99.90
20795;DHT22;28087;-33.874;151.240;2022-07-05T07:44:03;16.30;99.90
20795;DHT22;28087;-33.874;151.240;2022-07-05T07:46:47;16.40;99.90
20795;DHT22;28087;-33.874;151.240;2022-07-05T07:49:26;16.30;99.90
20795;DHT22;28087;-33.874;151.240;2022-07-05T07:52:09;16.30;99.90
20795;DHT22;28087;-33.874;151.240;2022-07-05T07:54:46;16.30;99.90
20795;DHT22;28087;-33.874;151.240;2022-07-05T07:57:24;16.30;99.90
20795;DHT22;28087;-33.874;151.240;2022-07-05T08:00:00;16.40;99.90
20795;DHT22;28087;-33.874;151.240;2022-07-05T08:02:41;16.40;99.90
20795;DHT22;28087;-33.874;151.240;2022-07-05T08:05:18;16.50;99.90
20795;DHT22;28087;-33.874;151.240;2022-07-05T08:08:11;16.50;99.90
20795;DHT22;28087;-33.874;151.240;2022-07-05T08:10:51;16.50;99.90
20795;DHT22;28087;-33.874;151.240;2022-07-05T08:13:34;16.50;99.90
20795;DHT22;28087;-33.874;151.240;2022-07-05T08:16:11;16.50;99.90
20795;DHT22;28087;-33.874;151.240;2022-07-05T08:19:04;16.50;99.90
20795;DHT22;28087;-33.874;151.240;2022-07-05T08:22:03;16.50;99.90
20795;DHT22;28087;-33.874;151.240;2022-07-05T08:24:54;16.40;99.90
20795;DHT22;28087;-33.874;151.240;2022-07-05T08:27:36;16.50;99.90
20795;DHT22;28087;-33.874;151.240;2022-07-05T08:30:14;16.50;99.90
20795;DHT22;28087;-33.874;151.240;2022-07-05T08:32:52;16.40;99.90
20795;DHT22;28087;-33.874;151.240;2022-07-05T08:35:35;16.50;99.90
20795;DHT22;28087;-33.874;151.240;2022-07-05T08:38:17;16.50;99.90
20795;DHT22;28087;-33.874;151.240;2022-07-05T08:40:59;16.50;99.90
20795;DHT22;28087;-33.874;151.240;2022-07-05T08:43:46;16.50;99.90
20795;DHT22;28087;-33.874;151.240;2022-07-05T08:46:28;16.50;99.90
20795;DHT22;28087;-33.874;151.240;2022-07-05T08:49:08;16.50;99.90
20795;DHT22;28087;-33.874;151.240;2022-07-05T08:51:54;16.60;99.90
20795;DHT22;28087;-33.874;151.240;2022-07-05T08:54:30;16.60;99.90
20795;DHT22;28087;-33.874;151.240;2022-07-05T08:57:09;16.60;99.90
20795;DHT22;28087;-33.874;151.240;2022-07-05T08:59:46;16.60;99.90
20795;DHT22;28087;-33.874;151.240;2022-07-05T09:02:23;16.50;99.90
20795;DHT22;28087;-33.874;151.240;2022-07-05T09:05:14;16.50;99.90
20795;DHT22;28087;-33.874;151.240;2022-07-05T09:08:09;16.50;99.90
20795;DHT22;28087;-33.874;151.240;2022-07-05T09:10:46;16.50;99.90
20795;DHT22;28087;-33.874;151.240;2022-07-05T09:13:34;16.50;99.90
20795;DHT22;28087;-33.874;151.240;2022-07-05T09:16:13;16.60;99.90
20795;DHT22;28087;-33.874;151.240;2022-07-05T09:18:51;16.60;99.90
20795;DHT22;28087;-33.874;151.240;2022-07-05T09:21:30;16.60;99.90
20795;DHT22;28087;-33.874;151.240;2022-07-05T09:24:09;16.60;99.90
20795;DHT22;28087;-33.874;151.240;2022-07-05T09:29:33;16.60;99.90
20795;DHT22;28087;-33.874;151.240;2022-07-05T09:32:28;16.50;99.90
20795;DHT22;28087;-33.874;151.240;2022-07-05T09:35:22;16.60;99.90
20795;DHT22;28087;-33.874;151.240;2022-07-05T09:37:58;16.50;99.90
20795;DHT22;28087;-33.874;151.240;2022-07-05T09:43:39;16.60;99.90
20795;DHT22;28087;-33.874;151.240;2022-07-05T09:46:30;16.60;99.90
20795;DHT22;28087;-33.874;151.240;2022-07-05T09:49:06;16.60;99.90
20795;DHT22;28087;-33.874;151.240;2022-07-05T09:51:52;16.60;99.90
20795;DHT22;28087;-33.874;151.240;2022-07-05T09:54:34;16.70;99.90
20795;DHT22;28087;-33.874;151.240;2022-07-05T09:57:26;16.60;99.90
20795;DHT22;28087;-33.874;151.240;2022-07-05T10:02:51;16.70;99.90
20795;DHT22;28087;-33.874;151.240;2022-07-05T10:05:34;16.60;99.90
20795;DHT22;28087;-33.874;151.240;2022-07-05T10:08:10;16.40;99.90
20795;DHT22;28087;-33.874;151.240;2022-07-05T10:10:47;16.60;99.90
20795;DHT22;28087;-33.874;151.240;2022-07-05T10:13:23;16.60;99.90
20795;DHT22;28087;-33.874;151.240;2022-07-05T10:16:00;16.70;99.90
20795;DHT22;28087;-33.874;151.240;2022-07-05T10:18:41;16.70;99.90
20795;DHT22;28087;-33.874;151.240;2022-07-05T10:32:24;16.70;99.90
20795;DHT22;28087;-33.874;151.240;2022-07-05T10:35:06;16.70;99.90
20795;DHT22;28087;-33.874;151.240;2022-07-05T10:37:43;16.60;99.90
20795;DHT22;28087;-33.874;151.240;2022-07-05T10:40:20;16.60;99.90
20795;DHT22;28087;-33.874;151.240;2022-07-05T10:43:14;16.60;99.90
20795;DHT22;28087;-33.874;151.240;2022-07-05T10:45:53;16.60;99.90
20795;DHT22;28087;-33.874;151.240;2022-07-05T10:48:33;16.60;99.90
20795;DHT22;28087;-33.874;151.240;2022-07-05T10:57:20;16.50;99.90
20795;DHT22;28087;-33.874;151.240;2022-07-05T11:02:45;16.70;99.90
20795;DHT22;28087;-33.874;151.240;2022-07-05T11:27:18;16.60;99.90
20795;DHT22;28087;-33.874;151.240;2022-07-05T11:29:57;16.60;99.90
20795;DHT22;28087;-33.874;151.240;2022-07-05T11:35:16;16.60;99.90
20795;DHT22;28087;-33.874;151.240;2022-07-05T11:38:13;16.60;99.90
20795;DHT22;28087;-33.874;151.240;2022-07-05T11:41:12;16.50;99.90
20795;DHT22;28087;-33.874;151.240;2022-07-05T11:43:56;16.50;99.90
20795;DHT22;28087;-33.874;151.240;2022-07-05T11:46:37;16.60;99.90
20795;DHT22;28087;-33.874;151.240;2022-07-05T11:49:22;16.50;99.90
20795;DHT22;28087;-33.874;151.240;2022-07-05T11:52:03;16.50;99.90
20795;DHT22;28087;-33.874;151.240;2022-07-05T11:54:39;16.50;99.90
20795;DHT22;28087;-33.874;151.240;2022-07-05T11:57:20;16.50;99.90
20795;DHT22;28087;-33.874;151.240;2022-07-05T11:59:58;16.50;99.90
20795;DHT22;28087;-33.874;151.240;2022-07-05T12:02:44;16.50;99.90
20795;DHT22;28087;-33.874;151.240;2022-07-05T12:05:22;16.50;99.90
20795;DHT22;28087;-33.874;151.240;2022-07-05T12:08:02;16.40;99.90
20795;DHT22;28087;-33.874;151.240;2022-07-05T12:10:38;16.40;99.90
20795;DHT22;28087;-33.874;151.240;2022-07-05T12:13:49;16.40;99.90
20795;DHT22;28087;-33.874;151.240;2022-07-05T12:16:27;16.40;99.90
20795;DHT22;28087;-33.874;151.240;2022-07-05T12:19:03;16.30;99.90
20795;DHT22;28087;-33.874;151.240;2022-07-05T12:21:44;16.40;99.90
20795;DHT22;28087;-33.874;151.240;2022-07-05T12:24:27;16.30;99.90
20795;DHT22;28087;-33.874;151.240;2022-07-05T12:27:11;16.20;99.90
20795;DHT22;28087;-33.874;151.240;2022-07-05T12:29:51;16.20;99.90
20795;DHT22;28087;-33.874;151.240;2022-07-05T12:32:53;16.10;99.90
20795;DHT22;28087;-33.874;151.240;2022-07-05T12:35:35;16.10;99.90
20795;DHT22;28087;-33.874;151.240;2022-07-05T12:38:12;16.10;99.90
20795;DHT22;28087;-33.874;151.240;2022-07-05T12:41:10;16.00;99.90
20795;DHT22;28087;-33.874;151.240;2022-07-05T12:43:53;16.00;99.90
20795;DHT22;28087;-33.874;151.240;2022-07-05T12:46:39;16.00;99.90
20795;DHT22;28087;-33.874;151.240;2022-07-05T12:49:17;16.00;99.90
20795;DHT22;28087;-33.874;151.240;2022-07-05T12:52:07;15.90;99.90
20795;DHT22;28087;-33.874;151.240;2022-07-05T12:55:12;15.90;99.90
20795;DHT22;28087;-33.874;151.240;2022-07-05T12:58:04;15.90;99.90
20795;DHT22;28087;-33.874;151.240;2022-07-05T13:00:51;15.80;99.90
20795;DHT22;28087;-33.874;151.240;2022-07-05T13:04:01;15.80;99.90
20795;DHT22;28087;-33.874;151.240;2022-07-05T13:06:48;15.80;99.90
20795;DHT22;28087;-33.874;151.240;2022-07-05T13:09:38;15.80;99.90
20795;DHT22;28087;-33.874;151.240;2022-07-05T13:12:17;15.70;99.90
20795;DHT22;28087;-33.874;151.240;2022-07-05T13:14:59;15.70;99.90
20795;DHT22;28087;-33.874;151.240;2022-07-05T13:17:41;15.70;99.90
20795;DHT22;28087;-33.874;151.240;2022-07-05T13:20:41;15.70;99.90
20795;DHT22;28087;-33.874;151.240;2022-07-05T13:23:18;15.70;99.90
20795;DHT22;28087;-33.874;151.240;2022-07-05T13:25:55;15.70;99.90
20795;DHT22;28087;-33.874;151.240;2022-07-05T13:28:38;15.70;99.90
20795;DHT22;28087;-33.874;151.240;2022-07-05T13:31:17;15.80;99.90
20795;DHT22;28087;-33.874;151.240;2022-07-05T13:34:02;15.70;99.90
20795;DHT22;28087;-33.874;151.240;2022-07-05T13:36:43;15.80;99.90
20795;DHT22;28087;-33.874;151.240;2022-07-05T13:39:23;15.70;99.90
20795;DHT22;28087;-33.874;151.240;2022-07-05T13:42:04;15.80;99.90
20795;DHT22;28087;-33.874;151.240;2022-07-05T13:44:41;15.80;99.90
20795;DHT22;28087;-33.874;151.240;2022-07-05T13:47:17;15.80;99.90
20795;DHT22;28087;-33.874;151.240;2022-07-05T13:49:55;15.90;99.90
20795;DHT22;28087;-33.874;151.240;2022-07-05T13:52:48;15.80;99.90
20795;DHT22;28087;-33.874;151.240;2022-07-05T13:55:30;15.80;99.90
20795;DHT22;28087;-33.874;151.240;2022-07-05T13:58:09;15.70;99.90
20795;DHT22;28087;-33.874;151.240;2022-07-05T14:00:45;15.70;99.90
20795;DHT22;28087;-33.874;151.240;2022-07-05T14:03:21;15.70;99.90
20795;DHT22;28087;-33.874;151.240;2022-07-05T14:06:02;15.60;99.90
20795;DHT22;28087;-33.874;151.240;2022-07-05T14:08:45;15.60;99.90
20795;DHT22;28087;-33.874;151.240;2022-07-05T14:11:26;15.60;99.90
20795;DHT22;28087;-33.874;151.240;2022-07-05T14:14:06;15.60;99.90
20795;DHT22;28087;-33.874;151.240;2022-07-05T14:16:48;15.60;99.90
20795;DHT22;28087;-33.874;151.240;2022-07-05T14:19:30;15.60;99.90
20795;DHT22;28087;-33.874;151.240;2022-07-05T14:22:12;15.60;99.90
20795;DHT22;28087;-33.874;151.240;2022-07-05T14:24:49;15.60;99.90
20795;DHT22;28087;-33.874;151.240;2022-07-05T14:27:32;15.60;99.90
20795;DHT22;28087;-33.874;151.240;2022-07-05T14:30:09;15.60;99.90
20795;DHT22;28087;-33.874;151.240;2022-07-05T14:32:51;15.60;99.90
20795;DHT22;28087;-33.874;151.240;2022-07-05T14:35:28;15.60;99.90
20795;DHT22;28087;-33.874;151.240;2022-07-05T14:38:06;15.70;99.90
20795;DHT22;28087;-33.874;151.240;2022-07-05T14:45:56;15.60;99.90
20795;DHT22;28087;-33.874;151.240;2022-07-05T14:48:36;15.60;99.90
20795;DHT22;28087;-33.874;151.240;2022-07-05T14:51:17;15.60;99.90
20795;DHT22;28087;-33.874;151.240;2022-07-05T14:53:53;15.60;99.90
20795;DHT22;28087;-33.874;151.240;2022-07-05T14:56:35;15.50;99.90
20795;DHT22;28087;-33.874;151.240;2022-07-05T14:59:13;15.50;99.90
20795;DHT22;28087;-33.874;151.240;2022-07-05T15:04:31;15.40;99.90
20795;DHT22;28087;-33.874;151.240;2022-07-05T15:07:10;15.40;99.90
20795;DHT22;28087;-33.874;151.240;2022-07-05T15:09:46;15.30;99.90
20795;DHT22;28087;-33.874;151.240;2022-07-05T15:12:42;15.40;99.90
20795;DHT22;28087;-33.874;151.240;2022-07-05T15:15:19;14.90;99.90
20795;DHT22;28087;-33.874;151.240;2022-07-05T15:31:21;15.20;99.90
20795;DHT22;28087;-33.874;151.240;2022-07-05T15:42:05;15.30;99.90
20795;DHT22;28087;-33.874;151.240;2022-07-05T15:44:58;15.20;99.90
20795;DHT22;28087;-33.874;151.240;2022-07-05T15:47:39;15.20;99.90
20795;DHT22;28087;-33.874;151.240;2022-07-05T15:50:18;15.10;99.90
20795;DHT22;28087;-33.874;151.240;2022-07-05T15:52:55;15.00;99.90
20795;DHT22;28087;-33.874;151.240;2022-07-05T15:55:32;15.10;99.90
20795;DHT22;28087;-33.874;151.240;2022-07-05T15:58:17;15.10;99.90
20795;DHT22;28087;-33.874;151.240;2022-07-05T16:00:57;15.10;99.90
20795;DHT22;28087;-33.874;151.240;2022-07-05T16:03:47;15.10;99.90
20795;DHT22;28087;-33.874;151.240;2022-07-05T16:06:28;15.10;99.90
20795;DHT22;28087;-33.874;151.240;2022-07-05T16:09:05;15.10;99.90
20795;DHT22;28087;-33.874;151.240;2022-07-05T16:11:46;15.10;99.90
20795;DHT22;28087;-33.874;151.240;2022-07-05T16:14:29;15.10;99.90
20795;DHT22;28087;-33.874;151.240;2022-07-05T16:17:19;15.10;99.90
20795;DHT22;28087;-33.874;151.240;2022-07-05T16:20:06;15.20;99.90
20795;DHT22;28087;-33.874;151.240;2022-07-05T16:22:43;15.10;99.90
20795;DHT22;28087;-33.874;151.240;2022-07-05T16:25:23;15.10;99.90
20795;DHT22;28087;-33.874;151.240;2022-07-05T16:28:06;15.10;99.90
20795;DHT22;28087;-33.874;151.240;2022-07-05T16:30:44;15.10;99.90
20795;DHT22;28087;-33.874;151.240;2022-07-05T16:33:26;15.10;99.90
20795;DHT22;28087;-33.874;151.240;2022-07-05T16:36:08;15.10;99.90
20795;DHT22;28087;-33.874;151.240;2022-07-05T16:38:54;15.10;99.90
20795;DHT22;28087;-33.874;151.240;2022-07-05T16:41:42;15.20;99.90
20795;DHT22;28087;-33.874;151.240;2022-07-05T16:44:18;15.10;99.90
20795;DHT22;28087;-33.874;151.240;2022-07-05T16:46:54;15.10;99.90
20795;DHT22;28087;-33.874;151.240;2022-07-05T16:49:32;15.20;99.90
20795;DHT22;28087;-33.874;151.240;2022-07-05T16:52:12;15.20;99.90
20795;DHT22;28087;-33.874;151.240;2022-07-05T16:55:12;15.20;99.90
20795;DHT22;28087;-33.874;151.240;2022-07-05T16:57:53;15.20;99.90
20795;DHT22;28087;-33.874;151.240;2022-07-05T17:01:12;15.20;99.90
20795;DHT22;28087;-33.874;151.240;2022-07-05T17:03:51;15.20;99.90
20795;DHT22;28087;-33.874;151.240;2022-07-05T17:06:36;15.30;99.90
20795;DHT22;28087;-33.874;151.240;2022-07-05T17:09:16;15.30;99.90
20795;DHT22;28087;-33.874;151.240;2022-07-05T17:11:52;15.30;99.90
20795;DHT22;28087;-33.874;151.240;2022-07-05T17:14:35;15.30;99.90
20795;DHT22;28087;-33.874;151.240;2022-07-05T17:17:19;15.30;99.90
20795;DHT22;28087;-33.874;151.240;2022-07-05T17:20:01;15.40;99.90
20795;DHT22;28087;-33.874;151.240;2022-07-05T17:23:00;15.40;99.90
20795;DHT22;28087;-33.874;151.240;2022-07-05T17:25:36;15.40;99.90
20795;DHT22;28087;-33.874;151.240;2022-07-05T17:28:17;15.40;99.90
20795;DHT22;28087;-33.874;151.240;2022-07-05T17:30:54;15.40;99.90
20795;DHT22;28087;-33.874;151.240;2022-07-05T17:33:37;15.50;99.90
20795;DHT22;28087;-33.874;151.240;2022-07-05T17:36:19;15.50;99.90
20795;DHT22;28087;-33.874;151.240;2022-07-05T17:39:02;15.60;99.90
20795;DHT22;28087;-33.874;151.240;2022-07-05T17:41:38;15.60;99.90
20795;DHT22;28087;-33.874;151.240;2022-07-05T17:44:33;15.60;99.90
20795;DHT22;28087;-33.874;151.240;2022-07-05T17:47:16;15.60;99.90
20795;DHT22;28087;-33.874;151.240;2022-07-05T17:49:57;15.60;99.90
20795;DHT22;28087;-33.874;151.240;2022-07-05T17:52:54;15.60;99.90
20795;DHT22;28087;-33.874;151.240;2022-07-05T17:55:32;15.60;99.90
20795;DHT22;28087;-33.874;151.240;2022-07-05T17:58:24;15.70;99.90
20795;DHT22;28087;-33.874;151.240;2022-07-05T18:01:02;15.70;99.90
20795;DHT22;28087;-33.874;151.240;2022-07-05T18:03:51;15.70;99.90
20795;DHT22;28087;-33.874;151.240;2022-07-05T18:06:28;15.70;99.90
20795;DHT22;28087;-33.874;151.240;2022-07-05T18:09:09;15.70;99.90
20795;DHT22;28087;-33.874;151.240;2022-07-05T18:11:53;15.70;99.90
20795;DHT22;28087;-33.874;151.240;2022-07-05T18:14:30;15.70;99.90
20795;DHT22;28087;-33.874;151.240;2022-07-05T18:17:12;15.70;99.90
20795;DHT22;28087;-33.874;151.240;2022-07-05T18:19:49;15.70;99.90
20795;DHT22;28087;-33.874;151.240;2022-07-05T18:22:34;15.70;99.90
20795;DHT22;28087;-33.874;151.240;2022-07-05T18:25:12;15.70;99.90
20795;DHT22;28087;-33.874;151.240;2022-07-05T18:28:01;15.70;99.90
20795;DHT22;28087;-33.874;151.240;2022-07-05T18:30:38;15.60;99.90
20795;DHT22;28087;-33.874;151.240;2022-07-05T18:33:18;15.70;99.90
20795;DHT22;28087;-33.874;151.240;2022-07-05T18:36:02;15.70;99.90
20795;DHT22;28087;-33.874;151.240;2022-07-05T18:38:53;15.70;99.90
20795;DHT22;28087;-33.874;151.240;2022-07-05T18:41:38;15.70;99.90
20795;DHT22;28087;-33.874;151.240;2022-07-05T18:44:21;15.80;99.90
20795;DHT22;28087;-33.874;151.240;2022-07-05T18:47:01;15.70;99.90
20795;DHT22;28087;-33.874;151.240;2022-07-05T18:49:40;15.70;99.90
20795;DHT22;28087;-33.874;151.240;2022-07-05T18:52:41;15.80;99.90
20795;DHT22;28087;-33.874;151.240;2022-07-05T18:55:20;15.70;99.90
20795;DHT22;28087;-33.874;151.240;2022-07-05T18:58:00;15.70;99.90
20795;DHT22;28087;-33.874;151.240;2022-07-05T19:00:47;15.80;99.90
20795;DHT22;28087;-33.874;151.240;2022-07-05T19:03:30;15.80;99.90
20795;DHT22;28087;-33.874;151.240;2022-07-05T19:06:09;15.80;99.90
20795;DHT22;28087;-33.874;151.240;2022-07-05T19:09:03;15.80;99.90
20795;DHT22;28087;-33.874;151.240;2022-07-05T19:12:02;15.80;99.90
20795;DHT22;28087;-33.874;151.240;2022-07-05T19:14:59;15.90;99.90
20795;DHT22;28087;-33.874;151.240;2022-07-05T19:17:40;15.80;99.90
20795;DHT22;28087;-33.874;151.240;2022-07-05T19:20:18;15.90;99.90
20795;DHT22;28087;-33.874;151.240;2022-07-05T19:23:17;15.80;99.90
20795;DHT22;28087;-33.874;151.240;2022-07-05T19:26:05;15.80;99.90
20795;DHT22;28087;-33.874;151.240;2022-07-05T19:28:47;15.80;99.90
20795;DHT22;28087;-33.874;151.240;2022-07-05T19:31:25;15.70;99.90
20795;DHT22;28087;-33.874;151.240;2022-07-05T19:34:07;15.80;99.90
20795;DHT22;28087;-33.874;151.240;2022-07-05T19:36:56;15.70;99.90
20795;DHT22;28087;-33.874;151.240;2022-07-05T19:39:35;15.80;99.90
20795;DHT22;28087;-33.874;151.240;2022-07-05T19:42:16;15.70;99.90
20795;DHT22;28087;-33.874;151.240;2022-07-05T19:44:54;15.70;99.90
20795;DHT22;28087;-33.874;151.240;2022-07-05T19:47:36;15.70;99.90
20795;DHT22;28087;-33.874;151.240;2022-07-05T19:50:19;15.70;99.90
20795;DHT22;28087;-33.874;151.240;2022-07-05T19:52:58;15.70;99.90